sensor_id;sensor_type;location;lat;lon;timestamp;pressure;altitude;pressure_sealevel;temperature;humidity
16613;BME280;8419;52.358;9.752;2023-07-31T00:01:36;100339.00;;;25.89;43.15
16613;BME280;8419;52.358;9.752;2023-07-31T00:04:22;100339.00;;;25.96;43.03
16613;BME280;8419;52.358;9.752;2023-07-31T00:07:07;100340.00;;;25.96;43.05
16613;BME280;8419;52.358;9.752;2023-07-31T00:09:53;100331.00;;;25.98;43.02
16613;BME280;8419;52.358;9.752;2023-07-31T00:12:39;100319.00;;;26.00;42.91
16613;BME280;8419;52.358;9.752;2023-07-31T00:15:24;100313.00;;;26.06;42.82
16613;BME280;8419;52.358;9.752;2023-07-31T00:18:10;100308.00;;;26.01;42.89
16613;BME280;8419;52.358;9.752;2023-07-31T00:20:56;100312.00;;;25.99;42.91
16613;BME280;8419;52.358;9.752;2023-07-31T00:23:41;100310.00;;;26.07;42.82
16613;BME280;8419;52.358;9.752;2023-07-31T00:26:27;100313.00;;;26.12;42.77
16613;BME280;8419;52.358;9.752;2023-07-31T00:29:12;100310.00;;;26.07;42.94
16613;BME280;8419;52.358;9.752;2023-07-31T00:31:58;100312.00;;;26.05;43.13
16613;BME280;8419;52.358;9.752;2023-07-31T00:34:44;100315.00;;;26.12;43.00
16613;BME280;8419;52.358;9.752;2023-07-31T00:37:30;100316.00;;;26.11;43.00
16613;BME280;8419;52.358;9.752;2023-07-31T00:40:16;100310.00;;;26.12;43.07
16613;BME280;8419;52.358;9.752;2023-07-31T00:43:01;100304.00;;;26.10;43.04
16613;BME280;8419;52.358;9.752;2023-07-31T00:45:48;100309.00;;;26.10;43.05
16613;BME280;8419;52.358;9.752;2023-07-31T00:48:34;100309.00;;;26.10;43.04
16613;BME280;8419;52.358;9.752;2023-07-31T00:51:20;100309.00;;;26.15;42.96
16613;BME280;8419;52.358;9.752;2023-07-31T00:54:06;100304.00;;;26.07;43.09
16613;BME280;8419;52.358;9.752;2023-07-31T00:56:53;100297.00;;;26.06;43.14
16613;BME280;8419;52.358;9.752;2023-07-31T00:59:39;100292.00;;;26.06;43.20
16613;BME280;8419;52.358;9.752;2023-07-31T01:02:25;100286.00;;;26.09;43.17
16613;BME280;8419;52.358;9.752;2023-07-31T01:05:10;100280.00;;;26.02;43.27
16613;BME280;8419;52.358;9.752;2023-07-31T01:08:00;100272.00;;;25.83;43.73
16613;BME280;8419;52.358;9.752;2023-07-31T01:10:52;100273.00;;;25.90;43.64
16613;BME280;8419;52.358;9.752;2023-07-31T01:13:40;100261.00;;;25.91;43.66
16613;BME280;8419;52.358;9.752;2023-07-31T01:16:26;100262.00;;;25.79;43.88
16613;BME280;8419;52.358;9.752;2023-07-31T01:19:15;100248.00;;;25.80;43.88
16613;BME280;8419;52.358;9.752;2023-07-31T01:22:15;100244.00;;;25.66;44.14
16613;BME280;8419;52.358;9.752;2023-07-31T01:25:19;100246.00;;;25.72;44.02
16613;BME280;8419;52.358;9.752;2023-07-31T01:28:12;100249.00;;;25.64;44.20
16613;BME280;8419;52.358;9.752;2023-07-31T01:30:59;100241.00;;;25.58;44.38
16613;BME280;8419;52.358;9.752;2023-07-31T01:33:46;100248.00;;;25.57;44.36
16613;BME280;8419;52.358;9.752;2023-07-31T01:36:32;100245.00;;;25.52;44.61
16613;BME280;8419;52.358;9.752;2023-07-31T01:39:20;100235.00;;;25.56;44.51
16613;BME280;8419;52.358;9.752;2023-07-31T01:42:06;100231.00;;;25.58;44.56
16613;BME280;8419;52.358;9.752;2023-07-31T01:44:53;100229.00;;;25.59;44.49
16613;BME280;8419;52.358;9.752;2023-07-31T01:47:38;100226.00;;;25.59;44.52
16613;BME280;8419;52.358;9.752;2023-07-31T01:50:24;100219.00;;;25.62;44.45
16613;BME280;8419;52.358;9.752;2023-07-31T01:53:10;100215.00;;;25.63;44.44
16613;BME280;8419;52.358;9.752;2023-07-31T01:55:57;100217.00;;;25.60;44.56
16613;BME280;8419;52.358;9.752;2023-07-31T01:58:42;100204.00;;;25.60;44.56
16613;BME280;8419;52.358;9.752;2023-07-31T02:01:28;100211.00;;;25.67;44.31
16613;BME280;8419;52.358;9.752;2023-07-31T02:04:13;100205.00;;;25.65;44.37
16613;BME280;8419;52.358;9.752;2023-07-31T02:06:59;100205.00;;;25.64;44.44
16613;BME280;8419;52.358;9.752;2023-07-31T02:09:44;100207.00;;;25.65;44.46
16613;BME280;8419;52.358;9.752;2023-07-31T02:12:32;100202.00;;;25.67;44.47
16613;BME280;8419;52.358;9.752;2023-07-31T02:15:18;100205.00;;;25.65;44.55
16613;BME280;8419;52.358;9.752;2023-07-31T02:18:04;100203.00;;;25.59;44.80
16613;BME280;8419;52.358;9.752;2023-07-31T02:20:50;100202.00;;;25.68;44.64
16613;BME280;8419;52.358;9.752;2023-07-31T02:23:36;100188.00;;;25.66;44.73
16613;BME280;8419;52.358;9.752;2023-07-31T02:26:23;100193.00;;;25.71;44.68
16613;BME280;8419;52.358;9.752;2023-07-31T02:29:09;100186.00;;;25.83;44.48
16613;BME280;8419;52.358;9.752;2023-07-31T02:31:55;100183.00;;;25.73;44.75
16613;BME280;8419;52.358;9.752;2023-07-31T02:34:40;100176.00;;;25.75;44.70
16613;BME280;8419;52.358;9.752;2023-07-31T02:37:26;100183.00;;;25.80;44.65
16613;BME280;8419;52.358;9.752;2023-07-31T02:40:14;100182.00;;;25.83;44.64
16613;BME280;8419;52.358;9.752;2023-07-31T02:42:59;100180.00;;;25.70;44.92
16613;BME280;8419;52.358;9.752;2023-07-31T02:45:48;100186.00;;;25.73;44.88
16613;BME280;8419;52.358;9.752;2023-07-31T02:48:36;100176.00;;;25.72;44.93
16613;BME280;8419;52.358;9.752;2023-07-31T02:51:21;100176.00;;;25.69;44.96
16613;BME280;8419;52.358;9.752;2023-07-31T02:54:07;100169.00;;;25.71;44.91
16613;BME280;8419;52.358;9.752;2023-07-31T02:56:53;100175.00;;;25.68;44.94
16613;BME280;8419;52.358;9.752;2023-07-31T02:59:39;100168.00;;;25.68;44.96
16613;BME280;8419;52.358;9.752;2023-07-31T03:02:24;100175.00;;;25.68;45.08
16613;BME280;8419;52.358;9.752;2023-07-31T03:05:10;100171.00;;;25.66;45.21
16613;BME280;8419;52.358;9.752;2023-07-31T03:07:55;100171.00;;;25.64;45.25
16613;BME280;8419;52.358;9.752;2023-07-31T03:10:41;100165.00;;;25.59;45.44
16613;BME280;8419;52.358;9.752;2023-07-31T03:13:27;100172.00;;;25.63;45.39
16613;BME280;8419;52.358;9.752;2023-07-31T03:16:12;100178.00;;;25.70;45.30
16613;BME280;8419;52.358;9.752;2023-07-31T03:18:58;100167.00;;;25.60;45.57
16613;BME280;8419;52.358;9.752;2023-07-31T03:21:44;100177.00;;;25.57;45.65
16613;BME280;8419;52.358;9.752;2023-07-31T03:24:29;100172.00;;;25.53;45.77
16613;BME280;8419;52.358;9.752;2023-07-31T03:27:15;100174.00;;;25.57;45.73
16613;BME280;8419;52.358;9.752;2023-07-31T03:30:02;100177.00;;;25.63;45.63
16613;BME280;8419;52.358;9.752;2023-07-31T03:32:47;100182.00;;;25.66;45.53
16613;BME280;8419;52.358;9.752;2023-07-31T03:35:33;100177.00;;;25.65;45.56
16613;BME280;8419;52.358;9.752;2023-07-31T03:38:19;100185.00;;;25.63;45.64
16613;BME280;8419;52.358;9.752;2023-07-31T03:41:05;100172.00;;;25.57;45.80
16613;BME280;8419;52.358;9.752;2023-07-31T03:43:51;100180.00;;;25.55;45.86
16613;BME280;8419;52.358;9.752;2023-07-31T03:46:37;100180.00;;;25.62;45.77
16613;BME280;8419;52.358;9.752;2023-07-31T03:49:23;100179.00;;;25.51;45.93
16613;BME280;8419;52.358;9.752;2023-07-31T03:52:09;100173.00;;;25.51;45.97
16613;BME280;8419;52.358;9.752;2023-07-31T03:54:55;100168.00;;;25.51;46.00
16613;BME280;8419;52.358;9.752;2023-07-31T03:57:42;100170.00;;;25.62;45.72
16613;BME280;8419;52.358;9.752;2023-07-31T04:00:27;100166.00;;;25.52;45.96
16613;BME280;8419;52.358;9.752;2023-07-31T04:03:13;100171.00;;;25.50;45.96
16613;BME280;8419;52.358;9.752;2023-07-31T04:05:59;100163.00;;;25.33;46.22
16613;BME280;8419;52.358;9.752;2023-07-31T04:08:44;100161.00;;;25.27;46.26
16613;BME280;8419;52.358;9.752;2023-07-31T04:11:30;100166.00;;;25.21;46.33
16613;BME280;8419;52.358;9.752;2023-07-31T04:14:17;100167.00;;;25.18;46.35
16613;BME280;8419;52.358;9.752;2023-07-31T04:17:03;100164.00;;;25.16;46.43
16613;BME280;8419;52.358;9.752;2023-07-31T04:19:49;100157.00;;;25.19;46.39
16613;BME280;8419;52.358;9.752;2023-07-31T04:22:34;100158.00;;;25.16;46.48
16613;BME280;8419;52.358;9.752;2023-07-31T04:25:20;100154.00;;;25.20;46.48
16613;BME280;8419;52.358;9.752;2023-07-31T04:28:05;100159.00;;;25.23;46.49
16613;BME280;8419;52.358;9.752;2023-07-31T04:30:52;100155.00;;;25.25;46.43
16613;BME280;8419;52.358;9.752;2023-07-31T04:33:38;100156.00;;;25.24;46.53
16613;BME280;8419;52.358;9.752;2023-07-31T04:36:23;100156.00;;;25.24;46.58
16613;BME280;8419;52.358;9.752;2023-07-31T04:39:09;100149.00;;;25.33;46.44
16613;BME280;8419;52.358;9.752;2023-07-31T04:41:55;100150.00;;;25.35;46.43
16613;BME280;8419;52.358;9.752;2023-07-31T04:44:41;100157.00;;;25.33;46.48
16613;BME280;8419;52.358;9.752;2023-07-31T04:47:26;100157.00;;;25.25;46.69
16613;BME280;8419;52.358;9.752;2023-07-31T04:50:12;100152.00;;;25.24;46.72
16613;BME280;8419;52.358;9.752;2023-07-31T04:52:58;100145.00;;;25.21;46.77
16613;BME280;8419;52.358;9.752;2023-07-31T04:55:43;100146.00;;;25.25;46.67
16613;BME280;8419;52.358;9.752;2023-07-31T04:58:29;100145.00;;;25.18;46.78
16613;BME280;8419;52.358;9.752;2023-07-31T05:01:16;100136.00;;;25.09;46.86
16613;BME280;8419;52.358;9.752;2023-07-31T05:04:01;100143.00;;;25.12;46.80
16613;BME280;8419;52.358;9.752;2023-07-31T05:06:47;100141.00;;;25.02;46.92
16613;BME280;8419;52.358;9.752;2023-07-31T05:09:32;100146.00;;;24.99;46.95
16613;BME280;8419;52.358;9.752;2023-07-31T05:12:18;100131.00;;;24.97;46.99
16613;BME280;8419;52.358;9.752;2023-07-31T05:15:06;100128.00;;;24.94;46.93
16613;BME280;8419;52.358;9.752;2023-07-31T05:17:51;100127.00;;;24.87;47.08
16613;BME280;8419;52.358;9.752;2023-07-31T05:20:38;100126.00;;;24.88;47.12
16613;BME280;8419;52.358;9.752;2023-07-31T05:23:23;100124.00;;;24.95;47.00
16613;BME280;8419;52.358;9.752;2023-07-31T05:26:09;100122.00;;;25.02;46.87
16613;BME280;8419;52.358;9.752;2023-07-31T05:28:55;100120.00;;;25.12;46.65
16613;BME280;8419;52.358;9.752;2023-07-31T05:31:40;100122.00;;;25.17;46.61
16613;BME280;8419;52.358;9.752;2023-07-31T05:34:26;100120.00;;;25.21;46.58
16613;BME280;8419;52.358;9.752;2023-07-31T05:37:12;100118.00;;;25.21;46.58
16613;BME280;8419;52.358;9.752;2023-07-31T05:39:57;100121.00;;;25.31;46.43
16613;BME280;8419;52.358;9.752;2023-07-31T05:42:42;100118.00;;;25.34;46.42
16613;BME280;8419;52.358;9.752;2023-07-31T05:45:28;100109.00;;;25.39;46.40
16613;BME280;8419;52.358;9.752;2023-07-31T05:48:14;100115.00;;;25.39;46.47
16613;BME280;8419;52.358;9.752;2023-07-31T05:51:00;100106.00;;;25.37;46.55
16613;BME280;8419;52.358;9.752;2023-07-31T05:53:45;100107.00;;;25.41;46.50
16613;BME280;8419;52.358;9.752;2023-07-31T05:56:31;100108.00;;;25.40;46.60
16613;BME280;8419;52.358;9.752;2023-07-31T05:59:18;100107.00;;;25.44;46.53
16613;BME280;8419;52.358;9.752;2023-07-31T06:02:05;100109.00;;;25.45;46.57
16613;BME280;8419;52.358;9.752;2023-07-31T06:04:51;100102.00;;;25.43;46.84
16613;BME280;8419;52.358;9.752;2023-07-31T06:07:36;100104.00;;;25.42;46.85
16613;BME280;8419;52.358;9.752;2023-07-31T06:10:22;100101.00;;;25.55;46.69
16613;BME280;8419;52.358;9.752;2023-07-31T06:13:08;100110.00;;;25.26;47.42
16613;BME280;8419;52.358;9.752;2023-07-31T06:15:53;100101.00;;;25.35;47.41
16613;BME280;8419;52.358;9.752;2023-07-31T06:18:39;100108.00;;;25.30;47.59
16613;BME280;8419;52.358;9.752;2023-07-31T06:21:25;100099.00;;;25.44;47.39
16613;BME280;8419;52.358;9.752;2023-07-31T06:24:10;100101.00;;;25.44;47.49
16613;BME280;8419;52.358;9.752;2023-07-31T06:26:57;100113.00;;;25.46;47.36
16613;BME280;8419;52.358;9.752;2023-07-31T06:29:43;100100.00;;;25.54;47.24
16613;BME280;8419;52.358;9.752;2023-07-31T06:32:31;100104.00;;;25.65;46.99
16613;BME280;8419;52.358;9.752;2023-07-31T06:35:16;100102.00;;;25.29;47.76
16613;BME280;8419;52.358;9.752;2023-07-31T06:38:01;100106.00;;;25.28;47.85
16613;BME280;8419;52.358;9.752;2023-07-31T06:40:47;100105.00;;;25.29;47.83
16613;BME280;8419;52.358;9.752;2023-07-31T06:43:34;100095.00;;;25.25;47.89
16613;BME280;8419;52.358;9.752;2023-07-31T06:46:19;100105.00;;;25.18;48.02
16613;BME280;8419;52.358;9.752;2023-07-31T06:49:05;100111.00;;;25.10;48.09
16613;BME280;8419;52.358;9.752;2023-07-31T06:51:50;100099.00;;;25.09;48.06
16613;BME280;8419;52.358;9.752;2023-07-31T06:54:36;100103.00;;;24.99;48.18
16613;BME280;8419;52.358;9.752;2023-07-31T06:57:22;100102.00;;;24.99;48.17
16613;BME280;8419;52.358;9.752;2023-07-31T07:00:10;100107.00;;;25.05;48.02
16613;BME280;8419;52.358;9.752;2023-07-31T07:02:55;100110.00;;;24.97;48.29
16613;BME280;8419;52.358;9.752;2023-07-31T07:05:41;100096.00;;;25.06;48.03
16613;BME280;8419;52.358;9.752;2023-07-31T07:08:26;100105.00;;;25.15;47.89
16613;BME280;8419;52.358;9.752;2023-07-31T07:11:12;100101.00;;;24.81;48.75
16613;BME280;8419;52.358;9.752;2023-07-31T07:13:58;100095.00;;;24.81;48.83
16613;BME280;8419;52.358;9.752;2023-07-31T07:16:43;100094.00;;;24.87;48.75
16613;BME280;8419;52.358;9.752;2023-07-31T07:19:29;100093.00;;;25.11;48.18
16613;BME280;8419;52.358;9.752;2023-07-31T07:22:15;100092.00;;;24.76;49.04
16613;BME280;8419;52.358;9.752;2023-07-31T07:25:02;100096.00;;;24.80;48.86
16613;BME280;8419;52.358;9.752;2023-07-31T07:27:47;100103.00;;;24.81;49.16
16613;BME280;8419;52.358;9.752;2023-07-31T07:30:33;100116.00;;;24.79;49.17
16613;BME280;8419;52.358;9.752;2023-07-31T07:33:19;100109.00;;;25.09;48.58
16613;BME280;8419;52.358;9.752;2023-07-31T07:36:05;100103.00;;;24.92;49.09
16613;BME280;8419;52.358;9.752;2023-07-31T07:38:54;100111.00;;;25.20;48.67
16613;BME280;8419;52.358;9.752;2023-07-31T07:41:40;100112.00;;;25.06;49.25
16613;BME280;8419;52.358;9.752;2023-07-31T07:44:25;100102.00;;;25.21;49.21
16613;BME280;8419;52.358;9.752;2023-07-31T07:47:13;100099.00;;;25.39;49.08
16613;BME280;8419;52.358;9.752;2023-07-31T07:49:59;100103.00;;;25.61;48.78
16613;BME280;8419;52.358;9.752;2023-07-31T07:52:44;100108.00;;;26.00;47.96
16613;BME280;8419;52.358;9.752;2023-07-31T07:55:31;100108.00;;;25.90;48.29
16613;BME280;8419;52.358;9.752;2023-07-31T07:58:16;100090.00;;;26.22;47.82
16613;BME280;8419;52.358;9.752;2023-07-31T08:01:02;100087.00;;;26.31;47.85
16613;BME280;8419;52.358;9.752;2023-07-31T08:03:48;100076.00;;;26.43;47.75
16613;BME280;8419;52.358;9.752;2023-07-31T08:06:33;100089.00;;;26.55;47.64
16613;BME280;8419;52.358;9.752;2023-07-31T08:09:19;100091.00;;;26.75;47.32
16613;BME280;8419;52.358;9.752;2023-07-31T08:12:06;100115.00;;;27.12;46.69
16613;BME280;8419;52.358;9.752;2023-07-31T08:14:53;100107.00;;;26.88;46.94
16613;BME280;8419;52.358;9.752;2023-07-31T08:17:38;100101.00;;;27.01;46.85
16613;BME280;8419;52.358;9.752;2023-07-31T08:20:24;100102.00;;;27.03;46.66
16613;BME280;8419;52.358;9.752;2023-07-31T08:23:09;100110.00;;;27.27;46.12
16613;BME280;8419;52.358;9.752;2023-07-31T08:25:55;100110.00;;;27.37;45.85
16613;BME280;8419;52.358;9.752;2023-07-31T08:28:41;100108.00;;;27.29;45.90
16613;BME280;8419;52.358;9.752;2023-07-31T08:31:27;100102.00;;;27.24;46.20
16613;BME280;8419;52.358;9.752;2023-07-31T08:34:14;100096.00;;;27.20;46.21
16613;BME280;8419;52.358;9.752;2023-07-31T08:37:00;100104.00;;;27.47;45.37
16613;BME280;8419;52.358;9.752;2023-07-31T08:39:45;100094.00;;;27.52;45.14
16613;BME280;8419;52.358;9.752;2023-07-31T08:42:31;100097.00;;;27.60;45.08
16613;BME280;8419;52.358;9.752;2023-07-31T08:45:18;100091.00;;;27.17;45.43
16613;BME280;8419;52.358;9.752;2023-07-31T08:48:04;100083.00;;;27.22;45.23
16613;BME280;8419;52.358;9.752;2023-07-31T08:50:50;100083.00;;;27.18;44.71
16613;BME280;8419;52.358;9.752;2023-07-31T08:53:38;100087.00;;;27.02;44.98
16613;BME280;8419;52.358;9.752;2023-07-31T08:56:24;100076.00;;;26.66;45.59
16613;BME280;8419;52.358;9.752;2023-07-31T08:59:12;100065.00;;;26.69;45.84
16613;BME280;8419;52.358;9.752;2023-07-31T09:02:05;100073.00;;;27.00;45.50
16613;BME280;8419;52.358;9.752;2023-07-31T09:04:50;100070.00;;;27.32;45.10
16613;BME280;8419;52.358;9.752;2023-07-31T09:07:36;100070.00;;;27.60;44.60
16613;BME280;8419;52.358;9.752;2023-07-31T09:10:22;100063.00;;;27.58;44.54
16613;BME280;8419;52.358;9.752;2023-07-31T09:13:08;100067.00;;;27.49;44.59
16613;BME280;8419;52.358;9.752;2023-07-31T09:15:55;100066.00;;;27.47;44.64
16613;BME280;8419;52.358;9.752;2023-07-31T09:18:54;100056.00;;;27.60;44.60
16613;BME280;8419;52.358;9.752;2023-07-31T09:21:48;100054.00;;;27.84;44.25
16613;BME280;8419;52.358;9.752;2023-07-31T09:24:35;100054.00;;;28.03;44.04
16613;BME280;8419;52.358;9.752;2023-07-31T09:27:20;100059.00;;;28.13;43.83
16613;BME280;8419;52.358;9.752;2023-07-31T09:30:08;100054.00;;;27.90;44.36
16613;BME280;8419;52.358;9.752;2023-07-31T09:33:03;100047.00;;;27.88;44.36
16613;BME280;8419;52.358;9.752;2023-07-31T09:35:51;100045.00;;;27.89;44.15
16613;BME280;8419;52.358;9.752;2023-07-31T09:38:37;100038.00;;;27.89;44.17
16613;BME280;8419;52.358;9.752;2023-07-31T09:41:22;100039.00;;;27.98;44.09
16613;BME280;8419;52.358;9.752;2023-07-31T09:44:08;100042.00;;;27.99;44.02
16613;BME280;8419;52.358;9.752;2023-07-31T09:46:54;100047.00;;;27.99;43.99
16613;BME280;8419;52.358;9.752;2023-07-31T09:49:45;100036.00;;;27.97;44.03
16613;BME280;8419;52.358;9.752;2023-07-31T09:52:30;100035.00;;;27.92;44.06
16613;BME280;8419;52.358;9.752;2023-07-31T09:55:17;100026.00;;;27.85;44.15
16613;BME280;8419;52.358;9.752;2023-07-31T09:58:05;100028.00;;;27.78;44.24
16613;BME280;8419;52.358;9.752;2023-07-31T10:00:51;100023.00;;;27.78;44.19
16613;BME280;8419;52.358;9.752;2023-07-31T10:03:38;100016.00;;;27.76;44.25
16613;BME280;8419;52.358;9.752;2023-07-31T10:06:25;100012.00;;;27.71;44.31
16613;BME280;8419;52.358;9.752;2023-07-31T10:09:12;100015.00;;;27.65;44.40
16613;BME280;8419;52.358;9.752;2023-07-31T10:12:05;100008.00;;;27.67;44.37
16613;BME280;8419;52.358;9.752;2023-07-31T10:14:55;100001.00;;;27.71;44.29
16613;BME280;8419;52.358;9.752;2023-07-31T10:17:42;100008.00;;;27.72;44.29
16613;BME280;8419;52.358;9.752;2023-07-31T10:20:28;100007.00;;;27.71;44.36
16613;BME280;8419;52.358;9.752;2023-07-31T10:23:15;100012.00;;;27.78;44.25
16613;BME280;8419;52.358;9.752;2023-07-31T10:26:01;100011.00;;;27.87;44.12
16613;BME280;8419;52.358;9.752;2023-07-31T10:28:49;100008.00;;;27.87;44.14
16613;BME280;8419;52.358;9.752;2023-07-31T10:31:36;99994.00;;;27.93;44.15
16613;BME280;8419;52.358;9.752;2023-07-31T10:34:22;99999.00;;;27.96;44.07
16613;BME280;8419;52.358;9.752;2023-07-31T10:37:22;99999.00;;;28.05;44.00
16613;BME280;8419;52.358;9.752;2023-07-31T10:40:11;99993.00;;;28.25;43.63
16613;BME280;8419;52.358;9.752;2023-07-31T10:42:57;99995.00;;;28.23;43.72
16613;BME280;8419;52.358;9.752;2023-07-31T10:45:43;99986.00;;;28.41;43.41
16613;BME280;8419;52.358;9.752;2023-07-31T10:48:33;99989.00;;;28.52;43.34
16613;BME280;8419;52.358;9.752;2023-07-31T10:51:21;99992.00;;;28.58;43.16
16613;BME280;8419;52.358;9.752;2023-07-31T10:54:11;99983.00;;;28.47;43.28
16613;BME280;8419;52.358;9.752;2023-07-31T10:56:57;99984.00;;;28.48;43.30
16613;BME280;8419;52.358;9.752;2023-07-31T10:59:43;99977.00;;;28.62;43.04
16613;BME280;8419;52.358;9.752;2023-07-31T11:02:29;99979.00;;;28.70;42.90
16613;BME280;8419;52.358;9.752;2023-07-31T11:05:18;99969.00;;;28.37;43.47
16613;BME280;8419;52.358;9.752;2023-07-31T11:08:14;99972.00;;;28.39;43.29
16613;BME280;8419;52.358;9.752;2023-07-31T11:11:07;99980.00;;;28.47;43.10
16613;BME280;8419;52.358;9.752;2023-07-31T11:13:54;99974.00;;;28.67;42.61
16613;BME280;8419;52.358;9.752;2023-07-31T11:16:41;99977.00;;;28.54;42.72
16613;BME280;8419;52.358;9.752;2023-07-31T11:19:27;99973.00;;;28.68;42.57
16613;BME280;8419;52.358;9.752;2023-07-31T11:22:14;99974.00;;;28.78;42.39
16613;BME280;8419;52.358;9.752;2023-07-31T11:25:00;99975.00;;;28.89;42.13
16613;BME280;8419;52.358;9.752;2023-07-31T11:27:46;99960.00;;;29.04;41.74
16613;BME280;8419;52.358;9.752;2023-07-31T11:30:32;99969.00;;;29.05;41.69
16613;BME280;8419;52.358;9.752;2023-07-31T11:33:18;99956.00;;;29.02;41.80
16613;BME280;8419;52.358;9.752;2023-07-31T11:36:04;99966.00;;;29.00;41.94
16613;BME280;8419;52.358;9.752;2023-07-31T11:38:50;99952.00;;;28.85;42.13
16613;BME280;8419;52.358;9.752;2023-07-31T11:41:35;99959.00;;;28.81;42.34
16613;BME280;8419;52.358;9.752;2023-07-31T11:44:22;99943.00;;;28.86;42.30
16613;BME280;8419;52.358;9.752;2023-07-31T11:47:08;99948.00;;;28.82;42.27
16613;BME280;8419;52.358;9.752;2023-07-31T11:49:54;99944.00;;;28.85;42.25
16613;BME280;8419;52.358;9.752;2023-07-31T11:52:44;99950.00;;;29.07;42.07
16613;BME280;8419;52.358;9.752;2023-07-31T11:55:31;99939.00;;;29.23;41.92
16613;BME280;8419;52.358;9.752;2023-07-31T11:58:17;99940.00;;;29.34;41.83
16613;BME280;8419;52.358;9.752;2023-07-31T12:01:05;99937.00;;;29.63;41.31
16613;BME280;8419;52.358;9.752;2023-07-31T12:03:52;99929.00;;;29.70;41.19
16613;BME280;8419;52.358;9.752;2023-07-31T12:06:39;99938.00;;;29.68;41.26
16613;BME280;8419;52.358;9.752;2023-07-31T12:09:25;99940.00;;;29.77;41.20
16613;BME280;8419;52.358;9.752;2023-07-31T12:12:11;99937.00;;;29.83;41.15
16613;BME280;8419;52.358;9.752;2023-07-31T12:15:14;99934.00;;;29.99;40.85
16613;BME280;8419;52.358;9.752;2023-07-31T12:18:00;99934.00;;;29.83;41.06
16613;BME280;8419;52.358;9.752;2023-07-31T12:20:46;99942.00;;;29.75;41.16
16613;BME280;8419;52.358;9.752;2023-07-31T12:23:33;99931.00;;;29.49;41.53
16613;BME280;8419;52.358;9.752;2023-07-31T12:26:19;99932.00;;;29.47;41.51
16613;BME280;8419;52.358;9.752;2023-07-31T12:29:07;99939.00;;;29.26;41.86
16613;BME280;8419;52.358;9.752;2023-07-31T12:31:53;99928.00;;;29.18;42.17
16613;BME280;8419;52.358;9.752;2023-07-31T12:34:44;99924.00;;;29.16;42.13
16613;BME280;8419;52.358;9.752;2023-07-31T12:37:29;99924.00;;;29.14;42.10
16613;BME280;8419;52.358;9.752;2023-07-31T12:40:17;99922.00;;;28.95;42.45
16613;BME280;8419;52.358;9.752;2023-07-31T12:43:03;99909.00;;;29.03;42.29
16613;BME280;8419;52.358;9.752;2023-07-31T12:45:49;99917.00;;;29.02;42.47
16613;BME280;8419;52.358;9.752;2023-07-31T12:48:37;99911.00;;;29.14;42.32
16613;BME280;8419;52.358;9.752;2023-07-31T12:51:25;99922.00;;;29.24;42.24
16613;BME280;8419;52.358;9.752;2023-07-31T12:54:10;99910.00;;;29.20;42.37
16613;BME280;8419;52.358;9.752;2023-07-31T12:56:55;99914.00;;;29.27;42.31
16613;BME280;8419;52.358;9.752;2023-07-31T12:59:41;99902.00;;;29.29;42.25
16613;BME280;8419;52.358;9.752;2023-07-31T13:02:26;99912.00;;;29.31;42.25
16613;BME280;8419;52.358;9.752;2023-07-31T13:05:12;99902.00;;;29.39;42.16
16613;BME280;8419;52.358;9.752;2023-07-31T13:07:58;99904.00;;;29.63;41.85
16613;BME280;8419;52.358;9.752;2023-07-31T13:10:44;99917.00;;;29.81;41.52
16613;BME280;8419;52.358;9.752;2023-07-31T13:13:29;99901.00;;;29.84;41.30
16613;BME280;8419;52.358;9.752;2023-07-31T13:16:15;99903.00;;;30.02;40.99
16613;BME280;8419;52.358;9.752;2023-07-31T13:19:01;99897.00;;;30.17;40.81
16613;BME280;8419;52.358;9.752;2023-07-31T13:21:46;99903.00;;;30.08;40.60
16613;BME280;8419;52.358;9.752;2023-07-31T13:24:33;99907.00;;;29.85;40.65
16613;BME280;8419;52.358;9.752;2023-07-31T13:27:18;99896.00;;;29.71;40.70
16613;BME280;8419;52.358;9.752;2023-07-31T13:30:08;99914.00;;;29.81;40.49
16613;BME280;8419;52.358;9.752;2023-07-31T13:32:54;99894.00;;;29.80;40.48
16613;BME280;8419;52.358;9.752;2023-07-31T13:35:39;99905.00;;;29.63;40.63
16613;BME280;8419;52.358;9.752;2023-07-31T13:38:25;99905.00;;;29.65;40.50
16613;BME280;8419;52.358;9.752;2023-07-31T13:41:10;99906.00;;;29.56;40.51
16613;BME280;8419;52.358;9.752;2023-07-31T13:43:58;99904.00;;;29.83;40.25
16613;BME280;8419;52.358;9.752;2023-07-31T13:46:43;99897.00;;;29.90;40.14
16613;BME280;8419;52.358;9.752;2023-07-31T13:49:29;99901.00;;;29.96;39.99
16613;BME280;8419;52.358;9.752;2023-07-31T13:52:15;99889.00;;;30.02;39.85
16613;BME280;8419;52.358;9.752;2023-07-31T13:55:00;99891.00;;;30.18;39.70
16613;BME280;8419;52.358;9.752;2023-07-31T13:57:47;99888.00;;;30.23;39.66
16613;BME280;8419;52.358;9.752;2023-07-31T14:00:34;99886.00;;;30.25;39.81
16613;BME280;8419;52.358;9.752;2023-07-31T14:03:20;99885.00;;;30.34;39.66
16613;BME280;8419;52.358;9.752;2023-07-31T14:06:05;99893.00;;;30.29;39.72
16613;BME280;8419;52.358;9.752;2023-07-31T14:08:51;99885.00;;;30.18;39.89
16613;BME280;8419;52.358;9.752;2023-07-31T14:11:36;99876.00;;;30.05;40.09
16613;BME280;8419;52.358;9.752;2023-07-31T14:14:22;99887.00;;;29.89;40.21
16613;BME280;8419;52.358;9.752;2023-07-31T14:17:08;99888.00;;;29.83;40.26
16613;BME280;8419;52.358;9.752;2023-07-31T14:19:56;99880.00;;;29.83;40.26
16613;BME280;8419;52.358;9.752;2023-07-31T14:22:41;99873.00;;;29.80;40.35
16613;BME280;8419;52.358;9.752;2023-07-31T14:25:27;99861.00;;;29.80;40.46
16613;BME280;8419;52.358;9.752;2023-07-31T14:28:13;99864.00;;;29.90;40.26
16613;BME280;8419;52.358;9.752;2023-07-31T14:30:58;99854.00;;;29.95;40.08
16613;BME280;8419;52.358;9.752;2023-07-31T14:33:44;99855.00;;;29.91;40.04
16613;BME280;8419;52.358;9.752;2023-07-31T14:36:30;99862.00;;;29.76;40.43
16613;BME280;8419;52.358;9.752;2023-07-31T14:39:16;99858.00;;;29.78;40.48
16613;BME280;8419;52.358;9.752;2023-07-31T14:42:06;99860.00;;;29.73;40.59
16613;BME280;8419;52.358;9.752;2023-07-31T14:44:52;99847.00;;;29.78;40.53